Time;durP1;ratioP1;P1;durP2;ratioP2;P2;SDS_P1;SDS_P2;PMS_P1;PMS_P2;Temp;Humidity;BMP_temperature;BMP_pressure;BME280_temperature;BME280_humidity;BME280_pressure;Samples;Min_cycle;Max_cycle;Signal;HPM_P1;HPM_P2
2021/05/26 00:01:26;;;;;;;0.40;0.40;;;19.70;45.20;;;23.11;31.26;100679.13;5101609;28;20043;-55
2021/05/26 00:03:52;;;;;;;0.52;0.50;;;19.70;45.20;;;23.15;31.18;100687.75;5101407;28;20042;-57
2021/05/26 00:06:18;;;;;;;0.50;0.50;;;19.70;45.20;;;23.09;31.06;100670.41;5118948;28;20051;-56
2021/05/26 00:08:44;;;;;;;0.40;0.40;;;19.60;45.10;;;23.08;31.04;100669.53;5118669;28;20074;-56
2021/05/26 00:11:14;;;;;;;0.40;0.40;;;19.60;45.10;;;23.12;31.20;100672.81;5101260;28;20402;-57
2021/05/26 00:13:45;;;;;;;0.50;0.47;;;19.70;45.20;;;23.12;31.20;100679.03;5118302;28;20502;-55
2021/05/26 00:16:12;;;;;;;;;;;19.60;45.10;;;23.21;30.91;100671.31;5136515;28;20046;-57
2021/05/26 00:18:37;;;;;;;0.43;0.43;;;19.60;45.20;;;23.15;31.07;100669.94;5101320;28;19922;-57
2021/05/26 00:21:06;;;;;;;0.40;0.40;;;19.60;45.10;;;23.11;30.98;100666.63;5118448;28;20446;-56
2021/05/26 00:23:31;;;;;;;0.60;0.60;;;19.60;45.20;;;23.09;31.12;100662.41;5118144;28;20418;-56
2021/05/26 00:25:57;;;;;;;0.40;0.40;;;19.60;45.20;;;23.07;31.05;100665.19;5118411;28;20051;-56
2021/05/26 00:28:23;;;;;;;0.38;0.38;;;19.60;45.20;;;23.05;31.21;100648.38;5135325;28;20047;-57
2021/05/26 00:30:51;;;;;;;0.43;0.40;;;19.60;45.30;;;23.06;31.27;100650.13;5135434;28;20058;-56
2021/05/26 00:33:20;;;;;;;0.50;0.50;;;19.60;45.30;;;23.02;31.11;100647.75;5118012;28;20430;-56
2021/05/26 00:35:47;;;;;;;0.50;0.43;;;19.60;45.30;;;23.05;31.27;100653.72;5118097;28;20123;-56
2021/05/26 00:38:14;;;;;;;0.98;0.70;;;19.60;45.30;;;23.00;31.09;100637.22;5117960;28;20403;-56
2021/05/26 00:40:41;;;;;;;0.43;0.43;;;19.60;45.30;;;23.04;31.13;100648.53;5100839;28;20043;-53
2021/05/26 00:43:07;;;;;;;0.65;0.60;;;19.60;45.30;;;23.00;31.40;100653.22;5100919;28;20043;-55
2021/05/26 00:45:33;;;;;;;0.55;0.55;;;19.60;45.30;;;23.01;31.37;100638.94;5117839;28;20055;-57
2021/05/26 00:48:00;;;;;;;0.40;0.40;;;19.50;45.30;;;22.99;31.41;100637.31;5117744;28;20092;-56
2021/05/26 00:50:30;;;;;;;0.50;0.50;;;19.50;45.30;;;22.99;31.36;100640.88;5117739;28;20078;-58
2021/05/26 00:53:02;;;;;;;0.50;0.50;;;19.50;45.30;;;22.94;31.28;100633.19;5101291;28;20130;-55
2021/05/26 00:55:28;;;;;;;0.50;0.50;;;19.50;45.30;;;23.01;31.34;100635.41;5118312;28;20538;-55
2021/05/26 00:57:55;;;;;;;0.50;0.50;;;19.50;45.30;;;22.96;31.43;100633.09;5117973;28;20047;-56
2021/05/26 01:00:24;;;;;;;0.40;0.40;;;19.60;45.30;;;22.96;31.27;100635.75;5135147;27;20047;-56
2021/05/26 01:02:58;;;;;;;0.50;0.50;;;19.60;45.40;;;23.01;31.19;100638.94;5102870;28;20398;-55
2021/05/26 01:05:27;;;;;;;0.70;0.55;;;19.60;45.40;;;23.00;31.36;100639.88;5135146;28;20477;-57
2021/05/26 01:07:54;;;;;;;0.40;0.40;;;19.50;45.80;;;23.00;31.41;100644.38;5117501;28;20051;-54
2021/05/26 01:10:24;;;;;;;0.45;0.45;;;19.50;45.30;;;22.98;31.34;100639.16;5117748;28;20553;-54
2021/05/26 01:13:00;;;;;;;0.40;0.40;;;19.60;45.40;;;23.00;31.38;100639.03;5134951;28;20386;-56
2021/05/26 01:15:26;;;;;;;0.40;0.40;;;19.60;45.40;;;22.99;31.23;100635.53;5117451;28;20039;-55
2021/05/26 01:17:53;;;;;;;0.47;0.47;;;19.50;45.30;;;22.99;31.36;100635.53;5117227;28;20121;-52
2021/05/26 01:20:30;;;;;;;0.40;0.40;;;19.50;45.30;;;22.95;31.26;100634.03;5101970;28;20439;-55
2021/05/26 01:22:59;;;;;;;0.40;0.40;;;19.50;45.30;;;22.97;31.40;100629.47;5117623;28;20066;-57
2021/05/26 01:25:28;;;;;;;0.57;0.50;;;19.60;45.40;;;23.01;31.40;100638.09;5101062;28;20070;-57
2021/05/26 01:27:57;;;;;;;0.40;0.40;;;19.60;45.40;;;23.00;31.36;100633.69;5134742;28;20050;-56
2021/05/26 01:30:23;;;;;;;0.40;0.40;;;19.60;45.30;;;23.01;31.31;100632.75;5117092;28;20062;-57
2021/05/26 01:32:51;;;;;;;0.40;0.40;;;19.60;45.40;;;22.99;31.32;100635.53;5117434;28;20046;-57
2021/05/26 01:35:21;;;;;;;0.40;0.40;;;19.60;45.30;;;22.96;31.22;100619.75;5134128;28;20055;-56
2021/05/26 01:37:48;;;;;;;0.50;0.50;;;19.60;45.30;;;22.99;31.19;100621.31;5100207;28;20043;-57
2021/05/26 01:40:18;;;;;;;0.50;0.50;;;19.60;45.30;;;22.98;31.35;100622.31;5134383;27;20050;-57
2021/05/26 01:42:45;;;;;;;0.43;0.40;;;19.60;45.30;;;22.98;31.51;100628.47;5117290;28;20043;-56
2021/05/26 01:45:15;;;;;;;0.45;0.45;;;19.60;45.30;;;23.00;31.38;100623.03;5117268;28;20050;-56
2021/05/26 01:47:42;;;;;;;0.50;0.50;;;19.60;45.40;;;22.98;31.32;100628.47;5116544;28;20062;-56
2021/05/26 01:50:19;;;;;;;0.50;0.50;;;19.60;45.30;;;22.99;31.32;100630.19;5116864;28;20053;-55
2021/05/26 01:53:05;;;;;;;0.47;0.47;;;19.50;45.30;;;22.98;31.36;100622.31;5119066;28;20506;-54
2021/05/26 01:55:38;;;;;;;0.50;0.50;;;19.50;45.30;;;23.00;31.31;100628.38;5116972;28;20047;-57
2021/05/26 01:58:06;;;;;;;0.40;0.40;;;19.50;45.30;;;23.00;31.45;100625.69;5100185;28;20104;-57
2021/05/26 02:00:44;;;;;;;0.50;0.50;;;19.50;45.30;;;23.00;31.38;100618.53;5117515;28;20495;-54
2021/05/26 02:03:11;;;;;;;0.40;0.40;;;19.50;45.30;;;22.98;31.25;100604.47;5116774;28;20049;-56
2021/05/26 02:05:38;;;;;;;0.40;0.40;;;19.60;45.40;;;22.97;31.32;100610.81;5099710;28;20490;-57
2021/05/26 02:08:05;;;;;;;0.57;0.57;;;19.50;45.30;;;22.98;31.34;100611.63;5117224;28;20100;-55
2021/05/26 02:13:16;;;;;;;0.40;0.40;;;19.50;45.30;;;22.98;31.37;100611.63;5133172;27;20043;-57
2021/05/26 02:15:43;;;;;;;0.47;0.47;;;19.50;45.30;;;22.98;31.27;100598.31;5133591;28;20045;-57
2021/05/26 02:18:09;;;;;;;0.50;0.50;;;19.50;45.30;;;22.99;31.53;100605.31;5134153;28;20379;-57
2021/05/26 02:20:37;;;;;;;0.40;0.40;;;19.50;45.40;;;22.94;31.30;100595.03;5133503;28;20384;-57
2021/05/26 02:23:03;;;;;;;0.47;0.47;;;19.50;45.40;;;22.97;31.27;100602.81;5116352;28;20131;-56
2021/05/26 02:25:29;;;;;;;0.50;0.50;;;19.50;45.40;;;22.96;31.36;100598.41;5116806;28;20079;-53
2021/05/26 02:27:55;;;;;;;0.43;0.43;;;19.50;45.40;;;22.93;31.40;100591.50;5133285;28;20386;-58
2021/05/26 02:30:23;;;;;;;0.57;0.50;;;19.50;45.40;;;22.98;31.38;100596.50;5116585;28;20039;-56
2021/05/26 02:32:49;;;;;;;0.40;0.40;;;19.50;45.40;;;22.95;31.32;100591.38;5116341;28;20105;-56
2021/05/26 02:35:16;;;;;;;0.50;0.50;;;19.50;45.40;;;22.98;31.28;100591.16;5133735;28;20498;-57
2021/05/26 02:37:44;;;;;;;0.55;0.50;;;19.50;45.40;;;22.98;31.30;100598.31;5133720;28;20512;-56
2021/05/26 02:40:11;;;;;;;0.60;0.60;;;19.50;45.40;;;22.96;31.41;100586.91;5116337;28;20055;-57
2021/05/26 02:42:37;;;;;;;0.40;0.40;;;19.50;45.40;;;22.99;31.31;100592.00;5116132;28;20035;-57
2021/05/26 02:45:04;;;;;;;0.40;0.40;;;19.50;45.40;;;23.02;31.24;100591.78;5133160;28;20039;-56
2021/05/26 02:47:30;;;;;;;0.40;0.40;;;19.60;45.30;;;23.04;31.34;100585.38;5116429;28;20493;-57
2021/05/26 02:49:58;;;;;;;0.40;0.40;;;19.60;45.10;;;23.08;31.41;100586.00;5099850;28;20050;-56
2021/05/26 02:52:24;;;;;;;0.40;0.40;;;19.70;45.10;;;23.13;31.26;100586.53;5115838;28;20050;-54
2021/05/26 02:55:00;;;;;;;0.50;0.45;;;19.70;45.10;;;23.19;31.09;100590.53;5117131;28;20043;-56
2021/05/26 02:57:26;;;;;;;0.50;0.50;;;19.70;45.00;;;23.20;31.29;100595.75;5132803;28;20058;-56
2021/05/26 03:00:13;;;;;;;0.40;0.40;;;19.70;44.90;;;23.25;31.12;100593.56;5119347;28;20085;-56
2021/05/26 03:03:01;;;;;;;0.40;0.40;;;19.80;44.90;;;23.31;31.12;100584.28;5119581;28;20485;-57
2021/05/26 03:05:29;;;;;;;0.30;0.30;;;19.80;44.80;;;23.34;30.85;100594.72;5116000;28;20047;-55
2021/05/26 03:07:55;;;;;;;0.38;0.38;;;19.90;44.80;;;23.37;30.83;100593.63;5132767;28;20082;-56
2021/05/26 03:10:21;;;;;;;0.77;0.60;;;19.90;44.70;;;23.37;31.06;100596.28;5098543;28;20078;-57
2021/05/26 03:12:53;;;;;;;0.50;0.50;;;20.00;44.60;;;23.40;30.97;100585.38;5116538;28;20130;-56
2021/05/26 03:15:20;;;;;;;0.50;0.50;;;20.00;44.50;;;23.43;31.02;100590.50;5134205;27;20114;-57
2021/05/26 03:17:46;;;;;;;0.40;0.40;;;20.00;44.40;;;23.47;30.94;100586.59;5099348;28;20081;-56
2021/05/26 03:20:17;;;;;;;0.50;0.50;;;20.10;44.40;;;23.49;30.88;100582.03;5132460;28;20574;-56
2021/05/26 03:22:46;;;;;;;0.60;0.50;;;20.10;44.20;;;23.49;31.02;100577.53;5115908;27;20051;-57
2021/05/26 03:25:43;;;;;;;0.40;0.40;;;20.10;44.10;;;23.57;30.81;100586.75;5132668;28;20482;-57
2021/05/26 03:28:09;;;;;;;0.40;0.35;;;20.20;44.10;;;23.58;30.70;100583.13;5115952;28;20475;-57
2021/05/26 03:30:35;;;;;;;0.40;0.40;;;20.20;44.10;;;23.60;30.57;100582.03;5115092;28;20043;-55
2021/05/26 03:33:04;;;;;;;0.50;0.50;;;20.20;44.00;;;23.62;30.65;100582.78;5115279;28;20050;-57
2021/05/26 03:35:32;;;;;;;0.40;0.40;;;20.20;44.00;;;23.65;30.52;100585.19;5115979;28;20045;-57
2021/05/26 03:38:00;;;;;;;0.40;0.40;;;20.20;44.00;;;23.66;30.65;100586.06;5132651;28;20138;-56
2021/05/26 03:40:27;;;;;;;0.43;0.43;;;20.10;44.00;;;23.62;30.56;100568.56;5132122;28;20410;-56
2021/05/26 03:42:58;;;;;;;0.40;0.40;;;20.10;44.10;;;23.65;30.25;100574.50;5115973;28;20482;-54
2021/05/26 03:45:33;;;;;;;0.40;0.40;;;20.10;44.20;;;23.63;30.44;100576.44;5116355;28;20051;-56
2021/05/26 03:48:00;;;;;;;0.40;0.40;;;20.00;44.80;;;23.64;30.38;100580.00;5115128;28;20406;-57
2021/05/26 03:50:28;;;;;;;0.30;0.30;;;20.00;44.30;;;23.62;30.47;100576.56;5132016;27;20043;-56
2021/05/26 03:52:56;;;;;;;0.30;0.30;;;20.00;44.40;;;23.59;30.58;100577.66;5115061;28;20134;-55
2021/05/26 03:55:24;;;;;;;0.30;0.30;;;19.90;44.40;;;23.58;30.53;100567.94;5098129;28;20067;-54
2021/05/26 03:57:53;;;;;;;0.40;0.40;;;19.90;44.40;;;23.57;30.48;100576.94;5115480;28;20043;-58
2021/05/26 04:00:23;;;;;;;0.50;0.40;;;19.90;44.40;;;23.55;30.60;100578.03;5132034;28;20050;-56
2021/05/26 04:03:05;;;;;;;0.30;0.30;;;19.90;44.50;;;23.55;30.60;100578.03;5132655;28;20441;-56
2021/05/26 04:05:31;;;;;;;0.40;0.40;;;19.90;44.50;;;23.45;30.62;100572.53;5098141;28;20049;-55
2021/05/26 04:07:58;;;;;;;0.30;0.30;;;19.90;44.60;;;23.44;30.78;100581.53;5097904;28;20130;-55
2021/05/26 04:10:24;;;;;;;0.40;0.40;;;19.90;44.60;;;23.41;30.65;100579.09;5115135;28;20512;-57
2021/05/26 04:12:52;;;;;;;0.40;0.40;;;19.90;44.70;;;23.33;30.73;100574.34;5114846;28;20089;-57
2021/05/26 04:15:26;;;;;;;0.40;0.40;;;19.80;44.70;;;23.34;30.88;100569.84;5115888;28;20159;-57
2021/05/26 04:18:11;;;;;;;0.50;0.50;;;19.80;44.70;;;23.31;30.89;100576.28;5132466;28;20050;-54
2021/05/26 04:20:39;;;;;;;0.47;0.47;;;19.80;44.80;;;23.24;30.94;100564.38;5115222;28;20051;-55
2021/05/26 04:23:05;;;;;;;0.30;0.30;;;19.70;44.80;;;23.26;30.84;100570.44;5133654;27;20470;-57
2021/05/26 04:25:34;;;;;;;0.38;0.38;;;19.80;44.90;;;23.20;31.02;100560.22;5114874;28;20113;-56
2021/05/26 04:28:00;;;;;;;0.40;0.40;;;19.70;44.90;;;23.27;30.86;100569.47;5115214;28;20051;-54
2021/05/26 04:30:27;;;;;;;0.40;0.40;;;19.70;44.90;;;23.26;31.14;100560.63;5114465;28;20089;-56
2021/05/26 04:32:53;;;;;;;0.40;0.40;;;19.70;44.80;;;23.29;31.06;100551.53;5114833;28;20100;-57
2021/05/26 04:35:20;;;;;;;0.40;0.40;;;19.80;44.80;;;23.28;31.02;100552.50;5132618;27;20039;-57
2021/05/26 04:37:46;;;;;;;0.40;0.40;;;19.90;44.70;;;23.33;30.90;100550.31;5135725;28;20454;-57
2021/05/26 04:40:12;;;;;;;0.30;0.30;;;19.90;44.60;;;23.35;30.80;100553.72;5118617;28;20058;-56
2021/05/26 04:42:38;;;;;;;0.50;0.50;;;19.90;44.60;;;23.38;30.81;100557.97;5101423;28;20048;-57
2021/05/26 04:45:06;;;;;;;0.47;0.47;;;19.90;44.60;;;23.42;30.62;100554.09;5118064;28;20078;-56
2021/05/26 04:47:31;;;;;;;0.47;0.43;;;19.90;44.60;;;23.42;30.67;100552.28;5117813;28;20059;-56
2021/05/26 04:49:57;;;;;;;0.35;0.35;;;19.90;44.50;;;23.47;30.60;100566.13;5134906;28;20486;-57
2021/05/26 04:52:23;;;;;;;0.40;0.40;;;19.90;44.50;;;23.46;30.59;100563.56;5100950;28;20047;-57
2021/05/26 04:54:49;;;;;;;0.45;0.45;;;19.90;44.50;;;23.52;30.57;100562.25;5118260;28;20497;-58
2021/05/26 04:57:14;;;;;;;0.40;0.40;;;19.90;44.50;;;23.47;30.56;100562.59;5135166;28;20054;-55
2021/05/26 04:59:40;;;;;;;0.40;0.40;;;19.90;44.60;;;23.49;30.69;100566.00;5117655;28;20047;-57
2021/05/26 05:02:07;;;;;;;0.32;0.32;;;19.90;44.60;;;23.49;30.74;100568.69;5134737;28;20051;-57
2021/05/26 05:04:32;;;;;;;0.43;0.40;;;19.90;44.60;;;23.51;30.58;100568.56;5117914;28;20108;-56
2021/05/26 05:06:58;;;;;;;0.30;0.30;;;19.90;44.60;;;23.52;30.71;100565.75;5117371;28;20059;-53
2021/05/26 05:09:24;;;;;;;0.30;0.30;;;19.90;44.60;;;23.51;30.44;100560.56;5117394;28;20051;-56
2021/05/26 05:11:50;;;;;;;0.40;0.40;;;19.90;44.50;;;23.54;30.72;100573.63;5117372;28;20137;-56
2021/05/26 05:14:16;;;;;;;0.40;0.40;;;19.90;44.50;;;23.58;30.53;100564.44;5135820;27;20126;-55
2021/05/26 05:16:42;;;;;;;0.40;0.40;;;20.00;44.40;;;23.63;30.54;100557.75;5117344;28;20047;-55
2021/05/26 05:19:08;;;;;;;0.43;0.43;;;20.10;44.30;;;23.64;30.60;100555.97;5117285;28;20047;-56
2021/05/26 05:21:34;;;;;;;0.40;0.40;;;20.20;44.70;;;23.73;30.44;100565.06;5134384;28;20051;-55
2021/05/26 05:23:59;;;;;;;0.43;0.40;;;20.20;44.10;;;23.76;30.43;100564.84;5117592;28;20537;-58
2021/05/26 05:26:25;;;;;;;0.40;0.40;;;20.20;44.10;;;23.75;30.46;100565.78;5134345;27;20096;-56
2021/05/26 05:28:51;;;;;;;0.40;0.40;;;20.20;44.10;;;23.77;30.31;100559.38;5100146;28;20039;-57
2021/05/26 05:31:17;;;;;;;0.43;0.43;;;20.20;44.00;;;23.83;30.40;100566.06;5117170;28;20160;-56
2021/05/26 05:33:43;;;;;;;0.55;0.40;;;20.20;44.00;;;23.83;30.22;100553.56;5117177;28;20126;-56
2021/05/26 05:36:09;;;;;;;0.45;0.45;;;20.20;43.90;;;23.84;30.23;100555.28;5117203;28;20051;-57
2021/05/26 05:38:36;;;;;;;0.47;0.47;;;20.20;43.90;;;23.87;30.29;100548.81;5117082;28;20122;-56
2021/05/26 05:41:03;;;;;;;0.38;0.38;;;20.30;43.90;;;23.85;30.20;100540.94;5133839;28;20062;-53
2021/05/26 05:43:29;;;;;;;0.40;0.40;;;20.30;43.90;;;23.89;30.19;100535.34;5099945;28;20074;-55
2021/05/26 05:45:54;;;;;;;0.30;0.30;;;20.30;43.80;;;23.96;29.96;100541.94;5135066;27;20047;-56
2021/05/26 05:48:20;;;;;;;0.45;0.43;;;20.30;43.70;;;23.98;30.18;100542.66;5134566;27;20047;-55
2021/05/26 05:50:46;;;;;;;0.52;0.52;;;20.30;43.70;;;23.98;29.99;100545.31;5116592;28;20047;-54
2021/05/26 05:53:13;;;;;;;0.35;0.35;;;20.40;43.70;;;23.97;29.98;100532.94;5116763;28;20459;-55
2021/05/26 05:55:40;;;;;;;0.40;0.40;;;20.40;43.70;;;24.04;30.04;100537.66;5133550;28;20047;-56
2021/05/26 05:58:06;;;;;;;0.35;0.35;;;20.40;43.60;;;24.08;29.82;100545.44;5099944;28;20146;-54
2021/05/26 06:00:35;;;;;;;0.50;0.50;;;20.40;43.50;;;24.07;30.04;100538.38;5133629;28;20130;-54
2021/05/26 06:03:00;;;;;;;0.40;0.40;;;20.50;43.60;;;24.16;30.09;100546.50;5116591;28;20451;-56
2021/05/26 06:05:26;;;;;;;0.40;0.40;;;20.50;43.50;;;24.17;29.69;100540.22;5133586;28;20108;-56
2021/05/26 06:07:52;;;;;;;1.38;0.40;;;20.50;43.40;;;24.19;29.76;100530.25;5099932;28;20459;-55
2021/05/26 06:10:18;;;;;;;0.45;0.45;;;20.50;43.40;;;24.20;29.79;100534.59;5116264;28;20039;-54
2021/05/26 06:12:44;;;;;;;0.40;0.40;;;20.50;43.40;;;24.10;29.64;100514.94;5133495;28;20053;-52
2021/05/26 06:15:10;;;;;;;0.40;0.40;;;20.50;43.50;;;24.16;29.73;100526.97;5116769;28;20051;-56
2021/05/26 06:17:36;;;;;;;0.60;0.40;;;20.50;43.50;;;24.17;29.73;100525.97;5099264;28;20062;-57
2021/05/26 06:20:03;;;;;;;0.40;0.40;;;20.50;43.50;;;24.16;29.70;100522.47;5133663;28;20496;-55
2021/05/26 06:22:29;;;;;;;0.38;0.38;;;20.50;43.50;;;24.17;29.71;100531.31;5116157;28;20047;-56
2021/05/26 06:24:56;;;;;;;0.40;0.40;;;20.40;43.50;;;24.12;29.74;100517.50;5116413;28;20039;-56
2021/05/26 06:27:22;;;;;;;0.50;0.50;;;20.50;43.50;;;24.16;29.85;100514.47;5116307;28;20478;-56
2021/05/26 06:29:47;;;;;;;0.60;0.50;;;20.50;43.50;;;24.17;29.73;100517.97;5116061;28;20497;-56
2021/05/26 06:32:13;;;;;;;0.55;0.55;;;20.50;43.50;;;24.18;29.87;100517.00;5116638;28;20050;-55
2021/05/26 06:34:39;;;;;;;0.40;0.40;;;20.50;43.50;;;24.13;29.65;100511.19;5116017;28;20039;-57
2021/05/26 06:37:07;;;;;;;0.40;0.40;;;20.40;43.50;;;24.12;29.73;100510.31;5116279;28;20119;-55
2021/05/26 06:39:32;;;;;;;0.40;0.40;;;20.40;43.50;;;24.09;29.74;100507.91;5133186;28;20054;-55
2021/05/26 06:41:58;;;;;;;0.57;0.57;;;20.40;43.50;;;24.12;29.79;100513.00;5134455;27;20397;-57
2021/05/26 06:44:24;;;;;;;0.40;0.40;;;20.40;43.60;;;24.02;29.69;100499.56;5116014;28;20047;-55
2021/05/26 06:46:50;;;;;;;0.50;0.40;;;20.30;43.60;;;24.04;29.75;100504.78;5133038;28;20053;-56
2021/05/26 06:49:15;;;;;;;0.43;0.40;;;20.30;43.60;;;24.07;29.70;100503.66;5115516;28;20054;-57
2021/05/26 06:51:41;;;;;;;0.40;0.40;;;20.30;43.70;;;24.02;29.81;100501.34;5115479;28;20051;-55
2021/05/26 06:54:07;;;;;;;0.30;0.30;;;20.30;43.70;;;24.05;29.84;100507.28;5133156;28;20047;-55
2021/05/26 06:56:33;;;;;;;0.50;0.50;;;20.30;43.70;;;24.06;29.59;100508.16;5134184;27;20051;-55
2021/05/26 06:58:59;;;;;;;0.60;0.60;;;20.30;43.70;;;24.03;30.03;100500.41;5133771;27;20088;-56
2021/05/26 07:01:25;;;;;;;0.40;0.40;;;20.30;43.70;;;24.00;29.83;100506.81;5134136;27;20478;-56
2021/05/26 07:03:51;;;;;;;0.45;0.40;;;20.30;43.70;;;24.03;29.84;100505.75;5115672;28;20051;-57
2021/05/26 07:06:17;;;;;;;3.83;0.50;;;20.30;43.70;;;24.07;29.80;100512.50;5115990;28;20500;-56
2021/05/26 07:08:43;;;;;;;0.52;0.52;;;20.30;43.70;;;24.01;29.78;100499.69;5115568;28;20114;-56
2021/05/26 07:11:09;;;;;;;0.40;0.40;;;20.30;43.70;;;24.07;29.65;100504.50;5132997;28;20467;-56
2021/05/26 07:13:36;;;;;;;9.73;2.05;;;20.30;43.70;;;24.04;31.40;100496.75;5132557;28;20517;-70
2021/05/26 07:16:02;;;;;;;2.00;0.60;;;20.40;53.40;;;24.06;30.27;100500.16;5134026;27;20047;-70
2021/05/26 07:18:28;;;;;;;1.48;0.60;;;20.30;44.60;;;24.07;29.98;100503.66;5132799;28;20051;-70
2021/05/26 07:20:54;;;;;;;1.65;0.52;;;20.30;44.40;;;24.03;29.82;100498.56;5098275;28;20062;-71
2021/05/26 07:23:21;;;;;;;1.63;0.43;;;20.30;44.30;;;24.08;30.10;100500.88;5115474;28;20398;-71
2021/05/26 07:25:46;;;;;;;2.40;0.52;;;20.30;44.40;;;24.07;29.87;100498.31;5133966;27;20046;-71
2021/05/26 07:28:13;;;;;;;1.88;0.50;;;20.30;44.40;;;24.12;29.94;100512.16;5115029;28;20043;-70
2021/05/26 07:30:40;;;;;;;0.60;0.50;;;20.30;44.40;;;24.08;29.86;100503.53;5132229;28;20488;-70
2021/05/26 07:33:06;;;;;;;1.70;0.50;;;20.30;44.40;;;24.11;29.73;100502.47;5132168;27;20051;-70
2021/05/26 07:35:32;;;;;;;1.02;0.65;;;20.30;44.30;;;24.08;29.87;100497.34;5133626;27;20049;-70
2021/05/26 07:37:58;;;;;;;0.88;0.57;;;20.30;44.20;;;24.14;29.56;100499.50;5114926;28;20406;-70
2021/05/26 07:40:24;;;;;;;1.30;0.55;;;20.30;44.20;;;24.09;29.67;100499.91;5133362;27;20494;-71
2021/05/26 07:42:50;;;;;;;0.40;0.40;;;20.30;44.20;;;24.11;29.86;100500.63;5132256;28;20515;-70
2021/05/26 07:45:16;;;;;;;0.55;0.50;;;20.30;44.20;;;24.13;29.67;100505.84;5132191;28;20079;-70
2021/05/26 07:47:42;;;;;;;1.08;0.50;;;20.30;44.20;;;24.14;29.80;100497.72;5133171;27;20045;-70
2021/05/26 07:50:09;;;;;;;0.45;0.40;;;20.30;44.20;;;24.13;29.87;100497.84;5097899;28;20044;-70
2021/05/26 07:52:35;;;;;;;1.85;0.50;;;20.30;44.10;;;24.14;29.65;100494.16;5114952;28;20046;-70
2021/05/26 07:55:01;;;;;;;0.40;0.40;;;20.30;44.20;;;24.09;29.74;100501.72;5114678;28;20039;-70
2021/05/26 07:57:26;;;;;;;0.75;0.43;;;20.30;44.20;;;24.07;29.94;100504.50;5115318;28;20172;-71
2021/05/26 07:59:53;;;;;;;1.58;0.60;;;20.20;44.30;;;23.99;29.95;100505.13;5131840;28;20103;-71
2021/05/26 08:02:19;;;;;;;0.82;0.52;;;20.20;44.40;;;23.99;29.88;100504.28;5114678;28;20054;-71
2021/05/26 08:04:44;;;;;;;0.50;0.50;;;20.10;44.50;;;23.94;29.91;100490.44;5114566;28;20216;-71
2021/05/26 08:07:10;;;;;;;0.40;0.40;;;20.10;44.60;;;23.91;30.09;100480.03;5131814;28;20051;-71
2021/05/26 08:09:39;;;;;;;0.80;0.50;;;20.10;44.60;;;23.90;30.10;100486.34;5131595;27;20047;-71
2021/05/26 08:12:08;;;;;;;1.40;0.60;;;20.10;44.60;;;23.91;29.99;100483.53;5118544;28;20166;-71
2021/05/26 08:14:38;;;;;;;1.23;0.50;;;20.10;44.60;;;23.96;30.17;100489.34;5135474;28;20082;-70
2021/05/26 08:17:05;;;;;;;1.48;0.70;;;20.20;44.60;;;23.95;30.16;100484.13;5118563;28;20043;-71
2021/05/26 08:19:32;;;;;;;0.82;0.50;;;20.20;44.60;;;23.94;29.97;100477.97;5118158;28;20078;-71
2021/05/26 08:21:58;;;;;;;1.05;0.55;;;20.10;44.50;;;23.91;29.97;100464.00;5136686;27;20051;-72
2021/05/26 08:24:23;;;;;;;0.73;0.50;;;20.10;44.50;;;23.92;30.10;100463.84;5136306;27;20058;-73
2021/05/26 08:26:51;;;;;;;1.50;0.63;;;20.10;44.60;;;23.88;30.04;100467.75;5135518;28;20047;-71
2021/05/26 08:29:18;;;;;;;0.80;0.60;;;20.10;44.70;;;23.83;30.10;100476.13;5117638;28;20055;-70
2021/05/26 08:31:44;;;;;;;1.88;0.63;;;20.10;44.70;;;23.86;30.03;100469.72;5135095;28;20051;-70
2021/05/26 08:34:11;;;;;;;2.15;0.50;;;20.10;44.70;;;23.84;30.20;100461.00;5136456;27;20050;-71
2021/05/26 08:36:36;;;;;;;5.72;0.60;;;20.10;44.80;;;23.83;30.32;100461.94;5135548;28;20056;-70
2021/05/26 08:39:06;;;;;;;0.60;0.40;;;20.10;44.80;;;23.84;29.98;100458.31;5135010;28;20043;-71
2021/05/26 08:41:32;;;;;;;1.35;0.70;;;20.10;44.80;;;23.81;30.08;100455.84;5117785;28;20039;-70
2021/05/26 08:43:58;;;;;;;1.33;0.60;;;20.00;44.80;;;23.82;30.20;100457.56;5117945;28;20043;-70
2021/05/26 08:46:28;;;;;;;1.10;0.70;;;20.00;44.80;;;23.80;30.28;100457.66;5134796;28;20073;-70
2021/05/26 08:48:57;;;;;;;0.60;0.50;;;20.00;44.80;;;23.84;30.30;100459.16;5134797;28;20512;-70
2021/05/26 08:51:24;;;;;;;1.00;0.70;;;20.10;44.80;;;23.93;30.40;100454.03;5135988;28;20047;-70
2021/05/26 08:53:50;;;;;;;1.40;0.63;;;20.20;44.70;;;24.02;30.08;100451.47;5117827;28;20051;-71
2021/05/26 08:56:16;;;;;;;1.63;0.60;;;20.30;44.50;;;24.05;30.00;100445.03;5117678;28;20142;-71
2021/05/26 08:58:43;;;;;;;0.93;0.60;;;20.30;44.40;;;24.07;30.11;100444.91;5134808;28;20410;-71
2021/05/26 09:01:09;;;;;;;1.58;0.80;;;20.30;44.30;;;24.11;29.97;100443.69;5134738;28;20374;-71
2021/05/26 09:03:35;;;;;;;2.40;0.73;;;20.30;44.30;;;24.11;30.02;100441.88;5136234;27;20061;-70
2021/05/26 09:06:02;;;;;;;1.05;0.57;;;20.30;44.40;;;24.11;29.95;100431.19;5134958;28;20509;-71
2021/05/26 09:08:28;;;;;;;2.13;0.60;;;20.40;44.40;;;24.17;29.89;100436.03;5134634;28;20043;-70
2021/05/26 09:11:02;;;;;;;0.60;0.50;;;20.40;44.30;;;24.19;29.71;100452.78;5117368;28;20090;-71
2021/05/26 09:13:40;;;;;;;2.67;0.85;;;20.40;44.20;;;24.20;29.90;100446.44;5134726;28;20039;-70
2021/05/26 09:16:28;;;;;;;1.10;0.60;;;20.40;44.20;;;24.20;29.99;100442.94;5134546;28;20551;-70
2021/05/26 09:19:00;;;;;;;0.60;0.60;;;20.40;44.20;;;24.17;30.05;100440.50;5134419;28;20476;-70
2021/05/26 09:21:50;;;;;;;4.25;1.23;;;20.40;44.20;;;24.17;30.00;100448.50;5134130;27;20051;-70
2021/05/26 09:24:19;;;;;;;1.30;0.80;;;20.40;44.20;;;24.21;29.86;100445.47;5134321;28;20043;-70
2021/05/26 09:27:06;;;;;;;1.35;0.75;;;20.40;44.30;;;24.18;29.75;100443.03;5135601;27;20055;-70
2021/05/26 09:29:44;;;;;;;1.60;0.70;;;20.40;44.20;;;24.18;29.93;100443.03;5135901;27;20424;-71
2021/05/26 09:32:21;;;;;;;2.22;0.90;;;20.40;44.20;;;24.18;30.05;100436.88;5134228;28;20478;-71
2021/05/26 09:34:52;;;;;;;4.38;0.70;;;20.50;44.30;;;24.22;29.82;100449.84;5134219;28;20536;-71
2021/05/26 09:37:21;;;;;;;4.30;1.00;;;20.40;44.20;;;24.23;30.10;100430.16;5129563;28;20059;-70
2021/05/26 09:40:02;;;;;;;0.88;0.60;;;20.50;44.20;;;24.23;29.85;100426.66;5133963;27;20131;-71
2021/05/26 09:42:38;;;;;;;3.03;0.80;;;20.50;44.20;;;24.30;29.81;100437.69;5134056;28;20055;-71
2021/05/26 09:45:17;;;;;;;3.05;1.00;;;20.50;44.10;;;24.31;30.04;100440.22;5133993;28;20047;-71
2021/05/26 09:47:46;;;;;;;1.05;0.55;;;20.50;44.10;;;24.28;29.99;100428.94;5135101;27;20055;-71
2021/05/26 09:50:21;;;;;;;1.75;0.80;;;20.50;44.10;;;24.29;29.93;100441.31;5133691;28;20050;-72
2021/05/26 09:53:12;;;;;;;0.80;0.70;;;20.50;44.10;;;24.25;29.68;100447.91;5116793;28;20368;-72
2021/05/26 09:55:43;;;;;;;0.60;0.60;;;20.50;44.10;;;24.23;29.77;100459.53;5133660;28;20485;-72
2021/05/26 09:58:12;;;;;;;3.03;1.05;;;20.40;44.20;;;24.22;29.82;100448.97;5133471;28;20130;-72
2021/05/26 10:00:40;;;;;;;2.40;0.65;;;20.40;44.20;;;24.19;29.99;100450.09;5134996;27;20320;-72
2021/05/26 10:03:07;;;;;;;2.17;0.73;;;20.40;44.30;;;24.23;29.94;100450.69;5116973;28;20122;-71
2021/05/26 10:05:34;;;;;;;1.60;0.60;;;20.40;44.30;;;24.25;29.83;100448.72;5116423;28;20059;-72
2021/05/26 10:08:20;;;;;;;1.00;0.70;;;20.50;44.30;;;24.26;29.77;100436.22;5119618;28;20131;-71
2021/05/26 10:10:57;;;;;;;1.73;0.68;;;20.50;44.10;;;24.32;29.81;100444.56;5102140;28;20050;-71
2021/05/26 10:13:25;;;;;;;0.73;0.68;;;20.50;44.10;;;24.32;29.91;100441.06;5099667;28;20047;-71
2021/05/26 10:15:52;;;;;;;2.45;0.75;;;20.50;44.00;;;24.38;29.89;100444.06;5116063;28;20043;-71
2021/05/26 10:18:18;;;;;;;1.35;0.80;;;20.60;44.60;;;24.40;29.69;100430.59;5134656;27;20075;-72
2021/05/26 10:20:45;;;;;;;1.58;0.60;;;20.60;44.00;;;24.47;29.84;100431.75;5116061;28;20047;-71